首页
METAR-TAF:

METAR-TAF

机场 :

Chumphon, 泰国

纬度: 10-42-40N, 经度: 099-21-42E, 海拔: 5米

当前天气观测

该预报发布于49分钟前的02:00 UTC
风速3节,风向西,在西转西南西北之间变化
温度 28°C
湿度 79%
气压 1014 hPa
能见度10公里或以上
散云层高于2000英尺

METAR: VTSE 170200Z 28003KT 250V310 9999 SCT020 28/24 Q1014 NOSIG

时间: 09:49 (02:49 UTC)

预报

该预报发布于3小时和49分钟前的23:00 UTC
预报有效从17日的 00点(UTC)到 17日的 24点(UTC)
风速8节,风向东南
能見度: 8000
散云层高于2000英尺

TAF: VTSE 162300Z 1700/1724 13008KT 8000 SCT020

超过4000个机场的气象观测和天气预报(METAR&TAF报告)。

可查询的气象台以黄色和红色小点在地图上表示。

将鼠标移到小点上方,可查看气象台名称。

然后点击查看天气观测和预报。

如需切换地图:点击带黑十字的绿色按钮放大地图;点击带横线的绿色按钮缩小地图;或者点击绿色箭头查看邻近地区的地图。


METAR-TAF: